Time;durP1;ratioP1;P1;durP2;ratioP2;P2;SDS_P1;SDS_P2;PMS_P1;PMS_P2;Temp;Humidity;BMP_temperature;BMP_pressure;BME280_temperature;BME280_humidity;BME280_pressure;Samples;Min_cycle;Max_cycle;Signal;HPM_P1;HPM_P2
2022/02/02 00:00:59;;;;;;;11.03;2.03;;;5.30;99.90;;;;;;4992100;28;20211;-78
2022/02/02 00:03:26;;;;;;;7.40;1.83;;;5.30;99.90;;;;;;4991290;28;20248;-78
2022/02/02 00:06:04;;;;;;;9.43;1.83;;;5.30;99.90;;;;;;5008136;28;20172;-78
2022/02/02 00:08:36;;;;;;;12.60;2.43;;;5.30;99.90;;;;;;4991714;28;20180;-78
2022/02/02 00:11:51;;;;;;;10.23;2.03;;;5.40;99.90;;;;;;4989683;28;20192;-80
2022/02/02 00:16:55;;;;;;;10.77;2.10;;;5.40;99.90;;;;;;4990975;28;20214;-80
2022/02/02 00:22:06;;;;;;;14.93;2.13;;;5.40;99.90;;;;;;4989265;28;20256;-77
2022/02/02 00:24:59;;;;;;;10.37;2.43;;;5.40;99.90;;;;;;4972354;28;20187;-78
2022/02/02 00:27:23;;;;;;;8.77;2.23;;;5.40;99.90;;;;;;4989269;28;20207;-79
2022/02/02 00:29:54;;;;;;;6.40;1.73;;;5.50;99.90;;;;;;4990495;28;20282;-77
2022/02/02 00:34:46;;;;;;;14.37;2.73;;;5.50;99.90;;;;;;4990208;28;20254;-78
2022/02/02 00:37:14;;;;;;;13.03;1.97;;;5.50;99.90;;;;;;4989967;28;20207;-78
2022/02/02 00:39:39;;;;;;;9.20;2.37;;;5.50;99.90;;;;;;4990489;28;20265;-76
2022/02/02 00:42:05;;;;;;;8.90;1.97;;;5.50;99.90;;;;;;4990857;28;20188;-78
2022/02/02 00:44:32;;;;;;;10.07;2.57;;;5.50;99.90;;;;;;4989976;28;20184;-80
2022/02/02 00:46:58;;;;;;;7.27;2.00;;;5.50;99.90;;;;;;4989854;28;20212;-78
2022/02/02 00:49:24;;;;;;;12.67;2.13;;;5.50;99.90;;;;;;4990012;28;20203;-76
2022/02/02 00:51:53;;;;;;;10.27;1.73;;;5.50;99.90;;;;;;4989766;28;20604;-77
2022/02/02 00:54:22;;;;;;;8.80;1.90;;;5.50;99.90;;;;;;4989855;28;20211;-79
2022/02/02 00:56:49;;;;;;;13.33;2.53;;;5.50;99.90;;;;;;4990112;28;20195;-78
2022/02/02 00:59:15;;;;;;;14.83;2.60;;;5.50;99.90;;;;;;4989956;28;20542;-77
2022/02/02 01:01:41;;;;;;;8.27;1.80;;;5.50;99.90;;;;;;4989512;28;20176;-78
2022/02/02 01:04:07;;;;;;;8.20;1.83;;;5.60;99.90;;;;;;4989737;28;20188;-78
2022/02/02 01:06:37;;;;;;;13.17;2.30;;;5.50;99.90;;;;;;4991805;28;21024;-78
2022/02/02 01:19:35;;;;;;;5.63;1.90;;;5.40;99.90;;;;;;4993010;28;20183;-79
2022/02/02 01:27:48;;;;;;;8.43;1.70;;;5.30;99.90;;;;;;4990544;28;20220;-79
2022/02/02 01:30:08;;;;;;;4.40;0.90;;;5.30;99.90;;;;;;4989913;28;20187;-76
2022/02/02 01:32:34;;;;;;;4.90;1.50;;;5.20;99.90;;;;;;4991938;28;20582;-75
2022/02/02 01:35:00;;;;;;;3.67;1.20;;;5.20;99.90;;;;;;4992477;28;20195;-78
2022/02/02 01:37:27;;;;;;;3.60;0.90;;;5.10;99.90;;;;;;4975368;28;20200;-77
2022/02/02 01:40:00;;;;;;;3.10;1.10;;;4.90;99.90;;;;;;4991630;28;20258;-77
2022/02/02 01:42:32;;;;;;;6.70;0.80;;;4.80;99.90;;;;;;4993202;28;20199;-77
2022/02/02 01:48:52;;;;;;;2.00;0.60;;;4.70;99.90;;;;;;4989949;28;20250;-77
2022/02/02 01:51:02;;;;;;;4.03;1.10;;;4.70;99.90;;;;;;4978802;28;20235;-78
2022/02/02 01:56:05;;;;;;;3.30;1.03;;;4.60;99.90;;;;;;4994586;28;20203;-76
2022/02/02 02:01:16;;;;;;;5.63;0.90;;;4.70;99.90;;;;;;4995057;28;20808;-78
2022/02/02 02:03:42;;;;;;;9.07;1.30;;;4.70;99.90;;;;;;4996219;28;20227;-77
2022/02/02 02:06:08;;;;;;;7.20;1.00;;;4.80;99.90;;;;;;4993524;28;20196;-78
2022/02/02 02:08:36;;;;;;;2.00;0.70;;;4.80;99.90;;;;;;4976976;28;20190;-78
2022/02/02 02:11:04;;;;;;;3.53;0.70;;;4.80;99.90;;;;;;4994161;28;20856;-78
2022/02/02 02:16:19;;;;;;;4.07;0.80;;;4.70;99.90;;;;;;4992891;28;20208;-76
2022/02/02 02:18:45;;;;;;;7.93;1.63;;;4.70;99.90;;;;;;4993336;28;20188;-80
2022/02/02 02:21:13;;;;;;;4.93;0.90;;;4.70;99.90;;;;;;4976428;28;20199;-77
2022/02/02 02:23:39;;;;;;;3.23;0.90;;;4.60;99.90;;;;;;4993988;28;20192;-77
2022/02/02 02:26:06;;;;;;;3.43;1.07;;;4.60;99.90;;;;;;4995003;28;20188;-77
2022/02/02 02:31:31;;;;;;;1.60;0.70;;;4.60;99.90;;;;;;4993520;28;20223;-79
2022/02/02 02:55:59;;;;;;;6.43;1.33;;;4.40;99.90;;;;;;4955914;28;20252;-77
2022/02/02 03:01:12;;;;;;;5.60;1.37;;;4.40;99.90;;;;;;4990102;28;20315;-76
2022/02/02 03:49:37;;;;;;;8.70;1.90;;;4.60;99.90;;;;;;4993725;28;20247;-77
2022/02/02 03:55:08;;;;;;;6.73;1.83;;;4.60;99.90;;;;;;4993198;28;20279;-78
2022/02/02 04:00:42;;;;;;;6.00;1.53;;;4.80;99.90;;;;;;4973173;28;20559;-79
2022/02/02 04:03:30;;;;;;;10.37;2.43;;;4.80;99.90;;;;;;4994905;28;20187;-79
2022/02/02 04:06:03;;;;;;;9.50;2.07;;;4.70;99.90;;;;;;4995660;28;20184;-79
2022/02/02 04:08:31;;;;;;;6.83;1.23;;;4.70;99.90;;;;;;4977668;28;20187;-79
2022/02/02 04:10:59;;;;;;;13.40;2.53;;;4.70;99.90;;;;;;4994480;28;20172;-78
2022/02/02 04:37:52;;;;;;;5.23;1.10;;;4.90;99.90;;;;;;4994934;28;20214;-79
2022/02/02 04:57:32;;;;;;;5.53;1.40;;;4.70;99.90;;;;;;4994578;28;20204;-79
2022/02/02 05:00:22;;;;;;;8.00;1.63;;;4.80;99.90;;;;;;4991748;28;20176;-77
2022/02/02 05:05:43;;;;;;;7.90;1.53;;;4.70;99.90;;;;;;4988194;28;20191;-77
2022/02/02 05:08:19;;;;;;;8.17;1.67;;;4.70;99.90;;;;;;4987765;28;20310;-79
2022/02/02 05:16:19;;;;;;;5.97;1.87;;;4.50;99.90;;;;;;4995984;28;20219;-77
2022/02/02 05:21:58;;;;;;;7.63;1.60;;;4.40;99.90;;;;;;4990884;28;20191;-77
2022/02/02 05:49:06;;;;;;;8.87;1.93;;;4.50;99.90;;;;;;4988105;28;20190;-76
2022/02/02 05:52:04;;;;;;;9.07;2.50;;;4.40;99.90;;;;;;4990460;28;20191;-78
2022/02/02 05:54:23;;;;;;;8.10;2.03;;;4.50;99.90;;;;;;4990608;28;20255;-79
2022/02/02 05:56:53;;;;;;;10.37;2.03;;;4.50;99.90;;;;;;4991040;28;20224;-77
2022/02/02 05:59:24;;;;;;;13.30;2.40;;;4.50;99.90;;;;;;4973315;28;20196;-76
2022/02/02 06:01:55;;;;;;;10.30;2.07;;;4.60;99.90;;;;;;4972787;28;20726;-77
2022/02/02 06:04:29;;;;;;;9.63;1.77;;;4.50;99.90;;;;;;4973070;28;20540;-78
2022/02/02 06:07:01;;;;;;;11.47;1.97;;;4.50;99.90;;;;;;4991303;28;20232;-77
2022/02/02 06:09:33;;;;;;;11.73;2.47;;;4.50;99.90;;;;;;4973992;28;20188;-77
2022/02/02 06:11:59;;;;;;;11.07;1.90;;;4.50;99.90;;;;;;4973330;28;20279;-77
2022/02/02 06:14:28;;;;;;;8.67;1.87;;;4.60;99.90;;;;;;4973575;28;20208;-77
2022/02/02 06:16:57;;;;;;;7.60;2.17;;;4.60;99.90;;;;;;4989715;28;20200;-77
2022/02/02 06:19:25;;;;;;;12.63;2.20;;;4.60;99.90;;;;;;4991212;28;20176;-76
2022/02/02 06:22:03;;;;;;;8.27;1.83;;;4.60;99.90;;;;;;4991434;28;20176;-76
2022/02/02 06:24:32;;;;;;;8.37;2.10;;;4.60;99.90;;;;;;4992176;28;20785;-77
2022/02/02 06:27:06;;;;;;;11.47;2.67;;;4.60;99.90;;;;;;4991423;28;20257;-78
2022/02/02 06:29:40;;;;;;;11.33;2.53;;;4.60;99.90;;;;;;4991215;28;20182;-79
2022/02/02 06:32:08;;;;;;;8.37;2.10;;;4.60;99.90;;;;;;4992591;28;20187;-78
2022/02/02 06:34:35;;;;;;;10.83;2.60;;;4.60;99.90;;;;;;4989798;28;20701;-80
2022/02/02 06:37:04;;;;;;;7.63;1.73;;;4.60;99.90;;;;;;4973223;28;20212;-78
2022/02/02 06:39:30;;;;;;;10.07;2.30;;;4.70;99.90;;;;;;4990079;28;21106;-80
2022/02/02 06:41:57;;;;;;;7.37;2.47;;;4.70;99.90;;;;;;4973225;28;20544;-79
2022/02/02 06:44:24;;;;;;;8.47;2.00;;;4.70;99.90;;;;;;4991080;28;20181;-78
2022/02/02 06:46:52;;;;;;;12.40;2.10;;;4.70;99.90;;;;;;4990283;28;20227;-76
2022/02/02 06:49:19;;;;;;;10.97;2.13;;;4.70;99.90;;;;;;4991195;28;20646;-76
2022/02/02 06:51:57;;;;;;;14.00;3.10;;;4.70;99.90;;;;;;4990134;28;20860;-77
2022/02/02 06:54:41;;;;;;;11.37;2.43;;;4.80;99.90;;;;;;4989765;28;20200;-77
2022/02/02 06:57:17;;;;;;;9.17;1.80;;;4.70;99.90;;;;;;4989353;28;20200;-77
2022/02/02 07:02:43;;;;;;;13.80;2.30;;;4.70;99.90;;;;;;4988521;28;20219;-78
2022/02/02 07:10:26;;;;;;;12.67;2.40;;;4.60;99.90;;;;;;4985166;28;21259;-77
2022/02/02 07:13:20;;;;;;;10.20;2.30;;;4.60;99.90;;;;;;4987049;28;20219;-76
2022/02/02 07:16:00;;;;;;;10.33;2.07;;;4.60;99.90;;;;;;4970575;28;20184;-77
2022/02/02 07:34:32;;;;;;;9.83;1.87;;;4.70;99.90;;;;;;4988447;28;20277;-77
2022/02/02 07:37:02;;;;;;;6.47;1.93;;;4.70;99.90;;;;;;4970404;28;20227;-76
2022/02/02 07:39:33;;;;;;;15.07;3.03;;;4.70;99.90;;;;;;4988370;28;20182;-75
2022/02/02 07:42:02;;;;;;;9.40;2.30;;;4.70;99.90;;;;;;4969830;28;20195;-78
2022/02/02 07:44:33;;;;;;;9.63;2.33;;;4.70;99.90;;;;;;4988223;28;20246;-76
2022/02/02 07:47:01;;;;;;;12.10;3.70;;;4.70;99.90;;;;;;4989131;28;20238;-77
2022/02/02 07:49:30;;;;;;;10.03;2.33;;;4.70;99.90;;;;;;4989208;28;20195;-76
2022/02/02 07:51:57;;;;;;;8.03;2.67;;;4.60;99.90;;;;;;4988203;28;20188;-77
2022/02/02 07:54:29;;;;;;;9.83;2.07;;;4.70;99.90;;;;;;4975343;28;20219;-77
2022/02/02 07:56:57;;;;;;;12.27;3.03;;;4.60;99.90;;;;;;4992176;28;20200;-78
2022/02/02 07:59:34;;;;;;;12.93;3.07;;;4.70;99.90;;;;;;4991424;28;20204;-77
2022/02/02 08:02:02;;;;;;;6.97;2.13;;;4.70;99.90;;;;;;4988170;28;20658;-77
2022/02/02 08:04:29;;;;;;;10.83;2.13;;;4.70;99.90;;;;;;4986217;28;20191;-77
2022/02/02 08:06:56;;;;;;;9.87;2.10;;;4.70;99.90;;;;;;4986034;28;20643;-79
2022/02/02 08:09:40;;;;;;;10.00;3.10;;;4.80;99.90;;;;;;4983963;28;20658;-77
2022/02/02 08:12:14;;;;;;;9.60;2.10;;;4.80;99.90;;;;;;4983597;28;20342;-76
2022/02/02 08:14:41;;;;;;;7.23;3.10;;;4.80;99.90;;;;;;4986724;28;20222;-79
2022/02/02 08:17:07;;;;;;;15.97;3.00;;;4.80;99.90;;;;;;4985857;28;20700;-76
2022/02/02 08:19:33;;;;;;;9.10;2.70;;;4.90;99.90;;;;;;4986490;28;20560;-78
2022/02/02 08:21:59;;;;;;;11.60;2.20;;;4.90;99.90;;;;;;4986735;28;21087;-74
2022/02/02 08:24:27;;;;;;;7.37;2.37;;;4.90;99.90;;;;;;4989619;28;20188;-80
2022/02/02 08:26:53;;;;;;;11.00;2.50;;;4.90;99.90;;;;;;4989505;28;20286;-78
2022/02/02 08:29:18;;;;;;;9.63;2.47;;;4.90;99.90;;;;;;4973273;28;20256;-74
2022/02/02 08:31:44;;;;;;;10.63;2.70;;;4.90;99.90;;;;;;4990724;28;20195;-78
2022/02/02 08:34:12;;;;;;;8.83;2.20;;;5.00;99.90;;;;;;4989945;28;20216;-77
2022/02/02 08:36:40;;;;;;;10.57;2.10;;;5.00;99.90;;;;;;4990767;28;20212;-79
2022/02/02 08:39:18;;;;;;;8.07;2.67;;;5.00;99.90;;;;;;4989598;28;20718;-79
2022/02/02 08:41:49;;;;;;;6.87;1.63;;;5.10;99.90;;;;;;4990398;28;20191;-78
2022/02/02 08:44:20;;;;;;;8.53;3.07;;;5.10;99.90;;;;;;4994691;28;20215;-76
2022/02/02 08:46:55;;;;;;;8.90;1.70;;;5.10;99.90;;;;;;4993345;28;20220;-79
2022/02/02 08:49:21;;;;;;;9.43;2.33;;;5.10;99.90;;;;;;4991470;28;20188;-79
2022/02/02 08:51:47;;;;;;;6.27;1.97;;;5.20;99.90;;;;;;4989773;28;20247;-77
2022/02/02 09:02:07;;;;;;;6.70;1.97;;;5.70;99.90;;;;;;4988608;28;20286;-79
2022/02/02 09:07:17;;;;;;;9.50;1.97;;;5.80;99.90;;;;;;4988794;28;20284;-76
2022/02/02 09:21:28;;;;;;;8.40;2.37;;;5.80;99.90;;;;;;4991659;28;20226;-77
2022/02/02 09:34:05;;;;;;;5.83;1.10;;;5.60;99.90;;;;;;4992299;28;20239;-78
2022/02/02 09:36:33;;;;;;;7.43;1.77;;;5.60;99.90;;;;;;4993170;28;20224;-78
2022/02/02 09:39:06;;;;;;;5.60;1.33;;;5.60;99.90;;;;;;4993193;28;20184;-75
2022/02/02 09:41:38;;;;;;;8.27;1.57;;;5.60;99.90;;;;;;4991102;28;20192;-77
2022/02/02 09:44:07;;;;;;;7.13;1.90;;;5.50;99.90;;;;;;4991079;28;20246;-77
2022/02/02 09:51:53;;;;;;;10.73;2.20;;;5.70;99.90;;;;;;4992973;28;20196;-81
2022/02/02 09:54:25;;;;;;;8.07;1.50;;;5.70;99.90;;;;;;4974110;28;20216;-78
2022/02/02 09:59:53;;;;;;;11.00;2.00;;;5.80;99.90;;;;;;4992056;28;20188;-79
2022/02/02 10:15:28;;;;;;;9.47;2.50;;;6.30;99.90;;;;;;4993538;28;20189;-78
2022/02/02 10:18:02;;;;;;;8.47;2.13;;;6.20;99.90;;;;;;4993863;28;20201;-78
2022/02/02 10:20:29;;;;;;;6.87;1.63;;;6.20;99.90;;;;;;4993630;28;20226;-78
2022/02/02 10:22:57;;;;;;;6.57;1.60;;;6.10;99.90;;;;;;4994572;28;20203;-79
2022/02/02 10:25:32;;;;;;;4.90;1.80;;;6.00;99.90;;;;;;4994558;28;20198;-76
2022/02/02 10:28:18;;;;;;;10.17;2.50;;;6.00;99.90;;;;;;4994071;28;20242;-75
2022/02/02 10:30:53;;;;;;;5.97;1.83;;;6.20;99.90;;;;;;4994583;28;20194;-74
2022/02/02 10:33:24;;;;;;;5.43;1.37;;;6.20;99.90;;;;;;4992326;28;20212;-76
2022/02/02 10:35:52;;;;;;;8.07;2.23;;;6.20;99.90;;;;;;4994363;28;20599;-79
2022/02/02 10:38:26;;;;;;;8.67;1.33;;;6.30;99.90;;;;;;4991983;28;20208;-78
2022/02/02 10:41:19;;;;;;;10.50;1.90;;;6.40;99.90;;;;;;4988183;28;20200;-77
2022/02/02 10:44:05;;;;;;;5.70;1.53;;;6.50;99.90;;;;;;4990215;28;20255;-78
2022/02/02 10:49:12;;;;;;;4.97;1.63;;;6.50;99.90;;;;;;4988483;28;20189;-79
2022/02/02 10:51:48;;;;;;;8.10;1.77;;;6.50;99.90;;;;;;4987866;28;20183;-79
2022/02/02 10:54:30;;;;;;;4.70;1.50;;;6.50;99.90;;;;;;4970635;28;20311;-76
2022/02/02 11:07:54;;;;;;;5.97;1.53;;;5.90;99.90;;;;;;4985257;28;20230;-77
2022/02/02 11:10:20;;;;;;;6.43;1.83;;;6.00;99.90;;;;;;4987558;28;20227;-78
2022/02/02 11:12:47;;;;;;;6.30;1.97;;;6.00;99.90;;;;;;4985942;28;20312;-79
2022/02/02 11:15:44;;;;;;;4.73;1.67;;;6.00;99.90;;;;;;4988366;28;20196;-78
2022/02/02 11:18:21;;;;;;;8.13;2.00;;;6.20;99.90;;;;;;4988373;28;20218;-77
2022/02/02 11:20:48;;;;;;;3.73;1.43;;;6.20;99.90;;;;;;4986707;28;20219;-76
2022/02/02 11:23:13;;;;;;;6.90;2.17;;;6.30;99.90;;;;;;4986567;28;20200;-76
2022/02/02 11:25:59;;;;;;;6.63;2.70;;;6.30;99.90;;;;;;4984224;28;20238;-77
2022/02/02 11:28:36;;;;;;;9.53;2.00;;;6.30;99.90;;;;;;4987030;28;20196;-78
2022/02/02 11:31:15;;;;;;;6.43;1.83;;;6.30;99.90;;;;;;4986388;28;20212;-78
2022/02/02 11:33:46;;;;;;;9.27;2.13;;;6.50;99.90;;;;;;4968358;28;20215;-75
2022/02/02 11:36:33;;;;;;;4.37;1.57;;;6.60;99.90;;;;;;4985722;28;20207;-77
2022/02/02 11:39:05;;;;;;;6.07;2.00;;;6.80;99.90;;;;;;4986231;28;20336;-77
2022/02/02 11:41:49;;;;;;;8.77;2.27;;;6.90;99.90;;;;;;4983276;28;20207;-77
2022/02/02 11:44:29;;;;;;;7.10;1.33;;;7.00;99.90;;;;;;4966992;28;20206;-78
2022/02/02 11:49:40;;;;;;;4.80;1.70;;;7.30;99.90;;;;;;4987225;28;20234;-78
2022/02/02 11:52:06;;;;;;;4.63;1.40;;;7.20;99.90;;;;;;4987267;28;20192;-78
2022/02/02 11:54:31;;;;;;;7.23;1.50;;;7.20;99.90;;;;;;4986848;28;20220;-79
2022/02/02 11:57:07;;;;;;;5.73;1.57;;;7.00;99.90;;;;;;4986157;28;20590;-77
2022/02/02 12:05:34;;;;;;;5.23;1.40;;;6.80;99.90;;;;;;4986046;28;20279;-78
2022/02/02 12:08:23;;;;;;;7.67;1.33;;;6.90;99.90;;;;;;4985125;28;20208;-77
2022/02/02 12:57:40;;;;;;;3.47;1.10;;;6.90;99.90;;;;;;4986173;28;20219;-80
2022/02/02 13:00:13;;;;;;;4.87;1.10;;;7.00;99.90;;;;;;4968019;28;20279;-77
2022/02/02 13:02:41;;;;;;;4.63;1.17;;;6.80;99.90;;;;;;4984527;28;20651;-76
2022/02/02 13:05:09;;;;;;;4.40;1.00;;;6.60;99.90;;;;;;4987037;28;20188;-77
2022/02/02 13:07:37;;;;;;;4.33;1.40;;;6.40;99.90;;;;;;4987070;28;20231;-79
2022/02/02 13:10:05;;;;;;;4.77;1.50;;;6.30;99.90;;;;;;4983782;28;20196;-78
2022/02/02 13:12:41;;;;;;;3.87;1.00;;;6.20;99.90;;;;;;4985091;28;20195;-79
2022/02/02 13:15:30;;;;;;;3.47;1.27;;;6.20;99.90;;;;;;4984568;28;20288;-75
2022/02/02 13:20:57;;;;;;;7.03;1.00;;;6.20;99.90;;;;;;4983246;28;20884;-77
2022/02/02 13:23:31;;;;;;;3.57;0.97;;;6.20;99.90;;;;;;4983824;28;20184;-76
2022/02/02 13:26:06;;;;;;;5.40;1.00;;;6.10;99.90;;;;;;4981177;28;20193;-76
2022/02/02 13:28:36;;;;;;;4.70;1.20;;;6.20;99.90;;;;;;4983937;28;20900;-76
2022/02/02 13:31:02;;;;;;;5.17;1.20;;;6.40;99.90;;;;;;4987231;28;20667;-77
2022/02/02 13:33:35;;;;;;;6.10;1.07;;;6.70;99.90;;;;;;4968071;28;20203;-77
2022/02/02 13:39:12;;;;;;;3.47;1.20;;;7.00;99.90;;;;;;4987016;28;20590;-76
2022/02/02 13:45:11;;;;;;;2.87;1.10;;;6.90;99.90;;;;;;4987181;28;20221;-77
2022/02/02 13:48:03;;;;;;;3.33;1.00;;;6.60;99.90;;;;;;4984402;28;20230;-78
2022/02/02 13:50:59;;;;;;;4.77;1.30;;;6.40;99.90;;;;;;4987154;28;20184;-78
2022/02/02 13:57:04;;;;;;;3.97;1.00;;;6.50;99.90;;;;;;4986431;28;20214;-77
2022/02/02 14:10:25;;;;;;;5.17;1.40;;;6.70;99.90;;;;;;4986688;28;20191;-76
2022/02/02 14:32:01;;;;;;;5.87;1.40;;;4.90;99.90;;;;;;4986198;28;20243;-79
2022/02/02 14:34:26;;;;;;;5.43;1.40;;;4.90;99.90;;;;;;4982788;28;20208;-77
2022/02/02 14:36:52;;;;;;;3.47;1.40;;;4.90;99.90;;;;;;4983751;28;20211;-76
2022/02/02 14:39:37;;;;;;;4.50;1.00;;;4.90;99.90;;;;;;4965282;28;20212;-77
2022/02/02 14:42:13;;;;;;;3.17;1.20;;;5.00;99.90;;;;;;4983442;28;20658;-76
2022/02/02 14:44:41;;;;;;;4.90;1.30;;;5.10;99.90;;;;;;4984502;28;20180;-76
2022/02/02 14:47:11;;;;;;;4.73;0.80;;;5.30;99.90;;;;;;4968056;28;20235;-76
2022/02/02 14:52:17;;;;;;;4.23;1.10;;;5.50;99.90;;;;;;4988314;28;20196;-75
2022/02/02 14:55:10;;;;;;;3.30;1.20;;;5.60;99.90;;;;;;4966878;28;20266;-77
2022/02/02 15:24:48;;;;;;;3.53;0.70;;;5.00;99.90;;;;;;4998864;28;20295;-78
2022/02/02 15:27:23;;;;;;;2.53;0.97;;;4.80;99.90;;;;;;4999100;28;20214;-77
2022/02/02 15:32:18;;;;;;;6.03;1.13;;;4.70;99.90;;;;;;4993506;28;20192;-77
2022/02/02 15:34:51;;;;;;;4.27;1.10;;;4.70;99.90;;;;;;4991698;28;20247;-78
2022/02/02 15:37:25;;;;;;;7.20;1.43;;;4.60;99.90;;;;;;4974506;28;20232;-77
2022/02/02 15:40:14;;;;;;;6.80;1.30;;;4.60;99.90;;;;;;4991386;28;20794;-79
2022/02/02 15:42:59;;;;;;;7.63;1.50;;;4.60;99.90;;;;;;4991718;28;20585;-78
2022/02/02 15:58:52;;;;;;;10.77;3.37;;;4.20;99.90;;;;;;4991558;28;20211;-77
2022/02/02 16:03:58;;;;;;;9.70;3.30;;;4.10;99.90;;;;;;4991557;28;20188;-78
2022/02/02 16:06:26;;;;;;;7.43;2.73;;;4.00;99.90;;;;;;4989165;28;20226;-78
2022/02/02 16:09:01;;;;;;;3.67;1.50;;;4.00;99.90;;;;;;4991140;28;20654;-77
2022/02/02 16:11:30;;;;;;;7.70;2.73;;;3.90;99.90;;;;;;4991057;28;20210;-76
2022/02/02 16:14:03;;;;;;;6.30;2.53;;;3.90;99.90;;;;;;4989198;28;20207;-78
2022/02/02 16:19:03;;;;;;;9.63;2.23;;;4.00;99.90;;;;;;4990624;28;20180;-78
2022/02/02 16:33:27;;;;;;;3.90;2.37;;;3.80;99.90;;;;;;4985459;28;20219;-78
2022/02/02 16:38:18;;;;;;;8.93;4.30;;;3.80;99.90;;;;;;4986776;28;20208;-76
2022/02/02 16:40:49;;;;;;;7.10;2.47;;;3.70;99.90;;;;;;4971154;28;20235;-78
2022/02/02 16:43:15;;;;;;;5.37;2.73;;;3.60;99.90;;;;;;4970405;28;20453;-78
2022/02/02 16:45:47;;;;;;;7.90;2.40;;;3.50;99.90;;;;;;4968841;28;20557;-76
2022/02/02 16:48:14;;;;;;;6.23;3.30;;;3.50;99.90;;;;;;4985147;28;20220;-77
2022/02/02 16:50:42;;;;;;;6.47;2.90;;;3.40;99.90;;;;;;4985808;28;20748;-76
2022/02/02 16:53:26;;;;;;;12.90;4.30;;;3.40;99.90;;;;;;4971350;28;20220;-76
2022/02/02 17:31:32;;;;;;;12.27;5.90;;;3.00;99.90;;;;;;4998493;28;20335;-76
2022/02/02 17:34:03;;;;;;;11.03;5.30;;;3.00;99.90;;;;;;4997937;28;20210;-78
2022/02/02 17:36:36;;;;;;;8.77;3.30;;;2.90;99.90;;;;;;4997636;28;20231;-77
2022/02/02 17:39:09;;;;;;;6.73;2.77;;;2.80;99.90;;;;;;4996192;28;20551;-79
2022/02/02 18:21:15;;;;;;;44.77;22.07;;;2.30;99.90;;;;;;4994294;28;20237;-76
2022/02/02 18:26:26;;;;;;;35.47;15.80;;;2.20;99.90;;;;;;4995307;28;20184;-74
2022/02/02 18:29:14;;;;;;;51.43;19.87;;;2.10;99.90;;;;;;4995367;28;20214;-78
2022/02/02 18:31:56;;;;;;;31.87;12.80;;;2.10;99.90;;;;;;4994072;28;20184;-75
2022/02/02 18:34:30;;;;;;;35.07;18.30;;;2.00;99.90;;;;;;4975594;28;20233;-76
2022/02/02 18:40:45;;;;;;;13.10;6.90;;;1.90;99.90;;;;;;4991001;28;20199;-76
2022/02/02 19:03:52;;;;;;;8.30;1.97;;;1.80;99.90;;;;;;4996064;28;20188;-79
2022/02/02 19:31:21;;;;;;;11.57;4.43;;;1.70;99.90;;;;;;4996290;28;20250;-80
2022/02/02 19:55:36;;;;;;;9.47;4.10;;;1.10;99.90;;;;;;4995931;28;20240;-79
2022/02/02 20:06:04;;;;;;;13.13;3.63;;;1.00;99.90;;;;;;4995552;28;20184;-77
2022/02/02 20:11:07;;;;;;;10.60;4.10;;;1.00;99.90;;;;;;4993675;28;20242;-78
2022/02/02 20:13:38;;;;;;;13.17;6.80;;;1.00;99.90;;;;;;4980589;28;20256;-76
2022/02/02 20:16:05;;;;;;;13.30;6.00;;;1.00;99.90;;;;;;4995795;28;20179;-77
2022/02/02 20:18:35;;;;;;;78.23;36.67;;;0.90;99.90;;;;;;4978541;28;20184;-78
2022/02/02 20:21:05;;;;;;;25.37;12.43;;;1.00;99.90;;;;;;4995850;28;21022;-75
2022/02/02 20:23:31;;;;;;;11.63;5.57;;;1.00;99.90;;;;;;4994960;28;20181;-77
2022/02/02 20:25:57;;;;;;;15.20;6.53;;;0.90;99.90;;;;;;4976084;28;20306;-76
2022/02/02 20:28:22;;;;;;;9.03;5.40;;;0.80;99.90;;;;;;4975534;28;20732;-80
2022/02/02 20:30:48;;;;;;;7.73;3.67;;;0.90;99.90;;;;;;4975672;28;20191;-79
2022/02/02 20:33:15;;;;;;;5.63;2.83;;;0.80;99.90;;;;;;4994036;28;20219;-78
2022/02/02 20:35:41;;;;;;;7.03;3.50;;;0.70;99.90;;;;;;4992776;28;20188;-78
2022/02/02 20:38:06;;;;;;;5.13;2.83;;;0.70;99.90;;;;;;4995820;28;20570;-79
2022/02/02 20:40:32;;;;;;;10.93;3.37;;;0.60;99.90;;;;;;4996565;28;20907;-79
2022/02/02 20:43:48;;;;;;;8.83;3.93;;;0.60;99.90;;;;;;4979360;28;20196;-74
2022/02/02 21:15:13;;;;;;;11.10;5.53;;;1.30;99.90;;;;;;4996882;28;20415;-76
2022/02/02 21:17:40;;;;;;;13.10;5.60;;;1.30;99.90;;;;;;4996341;28;20618;-79
2022/02/02 21:20:18;;;;;;;10.13;4.73;;;1.30;99.90;;;;;;4978811;28;20219;-75
2022/02/02 21:22:54;;;;;;;6.67;3.80;;;1.40;99.90;;;;;;4997393;28;20470;-77
2022/02/02 21:27:58;;;;;;;10.63;4.63;;;1.40;99.90;;;;;;4997620;28;20203;-78
2022/02/02 21:30:26;;;;;;;11.27;4.10;;;1.50;99.90;;;;;;4996103;28;20555;-75
2022/02/02 21:32:52;;;;;;;10.77;4.57;;;1.40;99.90;;;;;;4995717;28;20191;-78
2022/02/02 21:35:18;;;;;;;7.10;4.13;;;1.40;99.90;;;;;;4979923;28;20559;-76
2022/02/02 21:37:50;;;;;;;10.07;3.93;;;1.40;99.90;;;;;;4996723;28;20200;-75
2022/02/02 21:40:27;;;;;;;8.57;3.80;;;1.40;99.90;;;;;;4995167;28;20622;-76
2022/02/02 21:42:55;;;;;;;9.87;3.10;;;1.30;99.90;;;;;;4978973;28;20184;-78
2022/02/02 21:45:21;;;;;;;7.33;2.67;;;1.30;99.90;;;;;;4997018;28;20188;-77
2022/02/02 21:47:48;;;;;;;6.30;2.20;;;1.20;99.90;;;;;;4979547;28;20243;-75
2022/02/02 21:50:19;;;;;;;10.53;2.83;;;1.20;99.90;;;;;;4977889;28;20219;-76
2022/02/02 21:52:46;;;;;;;5.90;2.43;;;1.10;99.90;;;;;;4995722;28;20291;-74
2022/02/02 21:55:13;;;;;;;8.63;2.53;;;1.10;99.90;;;;;;4978537;28;20230;-79
2022/02/02 21:57:39;;;;;;;8.13;2.47;;;1.10;99.90;;;;;;4996809;28;20315;-76
2022/02/02 22:00:10;;;;;;;7.47;2.23;;;1.00;99.90;;;;;;4977994;28;20630;-76
2022/02/02 22:02:36;;;;;;;7.60;2.10;;;1.00;99.90;;;;;;4996047;28;20256;-73
2022/02/02 22:05:05;;;;;;;5.07;1.83;;;1.00;99.90;;;;;;4995486;28;20270;-79
2022/02/02 22:07:31;;;;;;;6.30;1.80;;;1.00;99.90;;;;;;4996610;28;20212;-78
2022/02/02 22:09:59;;;;;;;6.63;2.17;;;0.90;99.90;;;;;;4995499;28;20179;-75
2022/02/02 22:12:25;;;;;;;7.43;2.07;;;0.90;99.90;;;;;;4994908;28;20180;-77
2022/02/02 22:14:52;;;;;;;8.20;2.03;;;0.90;99.90;;;;;;4996530;28;20214;-76
2022/02/02 22:17:23;;;;;;;9.97;2.10;;;0.90;99.90;;;;;;4996424;28;20255;-78
2022/02/02 22:19:52;;;;;;;3.40;1.80;;;1.00;99.90;;;;;;4996608;28;20651;-77
2022/02/02 22:22:18;;;;;;;6.20;1.80;;;0.90;99.90;;;;;;4995936;28;20837;-78
2022/02/02 22:24:44;;;;;;;7.30;2.30;;;0.90;99.90;;;;;;4993711;28;20187;-74
2022/02/02 22:27:10;;;;;;;8.33;2.00;;;1.00;99.90;;;;;;4992891;28;20207;-77
2022/02/02 22:29:36;;;;;;;5.20;1.67;;;0.90;99.90;;;;;;4994629;28;20172;-74
2022/02/02 22:32:02;;;;;;;8.50;1.93;;;0.90;99.90;;;;;;4977063;28;20203;-76
2022/02/02 22:34:28;;;;;;;5.63;1.50;;;0.90;99.90;;;;;;4994931;28;20218;-76
2022/02/02 22:36:56;;;;;;;7.73;2.27;;;0.90;99.90;;;;;;4995141;28;20204;-78
2022/02/02 22:39:22;;;;;;;4.13;1.90;;;0.90;99.90;;;;;;4994960;28;20231;-78
2022/02/02 22:41:48;;;;;;;5.70;1.50;;;0.80;99.90;;;;;;4996369;28;21110;-76
2022/02/02 22:44:15;;;;;;;8.67;1.77;;;0.80;99.90;;;;;;4996016;28;20254;-78
2022/02/02 22:46:41;;;;;;;5.80;1.40;;;0.80;99.90;;;;;;4993792;28;20827;-77
2022/02/02 22:49:07;;;;;;;4.93;1.73;;;0.80;99.90;;;;;;4995261;28;20219;-77
2022/02/02 22:51:34;;;;;;;7.33;1.80;;;0.80;99.90;;;;;;4995422;28;20226;-76
2022/02/02 22:54:01;;;;;;;6.07;1.50;;;0.80;99.90;;;;;;4994890;28;20227;-77
2022/02/02 22:56:27;;;;;;;8.07;1.80;;;0.70;99.90;;;;;;4995537;28;20204;-76
2022/02/02 22:58:55;;;;;;;3.83;1.73;;;0.70;99.90;;;;;;4976366;28;20191;-77
2022/02/02 23:01:20;;;;;;;7.03;1.70;;;0.70;99.90;;;;;;4993111;28;20928;-75
2022/02/02 23:03:47;;;;;;;4.53;1.33;;;0.70;99.90;;;;;;4994744;28;20180;-77
2022/02/02 23:06:14;;;;;;;5.33;1.27;;;0.70;99.90;;;;;;4977059;28;20188;-75
2022/02/02 23:08:40;;;;;;;6.10;1.40;;;0.60;99.90;;;;;;4993992;28;20544;-77
2022/02/02 23:11:05;;;;;;;5.60;1.50;;;0.60;99.90;;;;;;4975245;28;20199;-77
2022/02/02 23:13:31;;;;;;;3.67;1.30;;;0.60;99.90;;;;;;4993110;28;20204;-76
2022/02/02 23:16:03;;;;;;;25.53;13.97;;;0.50;99.90;;;;;;4992577;28;20203;-76
2022/02/02 23:18:33;;;;;;;18.10;9.80;;;0.50;99.90;;;;;;4992731;28;20196;-76
2022/02/02 23:21:06;;;;;;;11.10;3.97;;;0.50;99.90;;;;;;4974426;28;20179;-78
2022/02/02 23:23:36;;;;;;;10.13;4.07;;;0.50;99.90;;;;;;5005143;28;20195;-75
2022/02/02 23:26:03;;;;;;;6.50;2.60;;;0.40;99.90;;;;;;4987660;28;20275;-77
2022/02/02 23:28:34;;;;;;;9.10;3.63;;;0.40;99.90;;;;;;4986900;28;20678;-75
2022/02/02 23:31:03;;;;;;;4.70;1.83;;;0.40;99.90;;;;;;4973443;28;20592;-78
2022/02/02 23:33:29;;;;;;;18.63;10.80;;;0.30;99.90;;;;;;4979385;28;20215;-74
2022/02/02 23:35:58;;;;;;;21.63;11.23;;;0.20;99.90;;;;;;4979464;28;20176;-78
2022/02/02 23:38:24;;;;;;;7.50;2.67;;;0.20;99.90;;;;;;4996885;28;20277;-78
2022/02/02 23:43:34;;;;;;;12.80;4.00;;;0.20;99.90;;;;;;4996710;28;20267;-78
2022/02/02 23:46:12;;;;;;;12.33;5.57;;;0.20;99.90;;;;;;4997193;28;20216;-77
2022/02/02 23:48:43;;;;;;;6.63;2.47;;;0.10;99.90;;;;;;4979038;28;20210;-76
2022/02/02 23:51:28;;;;;;;7.53;2.20;;;0.10;99.90;;;;;;4990098;28;20188;-77
2022/02/02 23:53:57;;;;;;;7.33;2.83;;;0.10;99.90;;;;;;4977590;28;20203;-77